sensor_id;sensor_type;location;lat;lon;timestamp;P1;durP1;ratioP1;P2;durP2;ratioP2
14080;SDS011;7116;52.152;5.392;2023-05-09T00:01:16;38.88;;;20.80;;
14080;SDS011;7116;52.152;5.392;2023-05-09T00:03:41;37.40;;;20.67;;
14080;SDS011;7116;52.152;5.392;2023-05-09T00:06:10;37.55;;;19.92;;
14080;SDS011;7116;52.152;5.392;2023-05-09T00:08:37;35.13;;;19.15;;
14080;SDS011;7116;52.152;5.392;2023-05-09T00:11:20;35.23;;;19.47;;
14080;SDS011;7116;52.152;5.392;2023-05-09T00:13:46;36.97;;;19.80;;
14080;SDS011;7116;52.152;5.392;2023-05-09T00:16:12;33.00;;;19.15;;
14080;SDS011;7116;52.152;5.392;2023-05-09T00:18:37;32.93;;;18.70;;
14080;SDS011;7116;52.152;5.392;2023-05-09T00:23:54;38.42;;;20.33;;
14080;SDS011;7116;52.152;5.392;2023-05-09T00:26:23;36.92;;;19.88;;
14080;SDS011;7116;52.152;5.392;2023-05-09T00:28:53;34.10;;;20.27;;
14080;SDS011;7116;52.152;5.392;2023-05-09T00:31:21;36.63;;;19.73;;
14080;SDS011;7116;52.152;5.392;2023-05-09T00:33:46;35.20;;;20.02;;
14080;SDS011;7116;52.152;5.392;2023-05-09T00:36:16;37.88;;;21.05;;
14080;SDS011;7116;52.152;5.392;2023-05-09T00:38:42;35.85;;;20.67;;
14080;SDS011;7116;52.152;5.392;2023-05-09T00:41:09;36.40;;;20.50;;
14080;SDS011;7116;52.152;5.392;2023-05-09T00:43:34;36.50;;;20.53;;
14080;SDS011;7116;52.152;5.392;2023-05-09T00:46:00;43.13;;;22.23;;
14080;SDS011;7116;52.152;5.392;2023-05-09T00:48:25;36.77;;;20.60;;
14080;SDS011;7116;52.152;5.392;2023-05-09T00:50:50;38.63;;;19.70;;
14080;SDS011;7116;52.152;5.392;2023-05-09T00:53:17;37.97;;;19.73;;
14080;SDS011;7116;52.152;5.392;2023-05-09T00:55:43;38.22;;;21.48;;
14080;SDS011;7116;52.152;5.392;2023-05-09T00:58:18;36.07;;;19.23;;
14080;SDS011;7116;52.152;5.392;2023-05-09T01:01:11;38.75;;;20.10;;
14080;SDS011;7116;52.152;5.392;2023-05-09T01:03:38;37.88;;;20.00;;
14080;SDS011;7116;52.152;5.392;2023-05-09T01:08:41;39.53;;;20.20;;
14080;SDS011;7116;52.152;5.392;2023-05-09T01:11:09;36.90;;;19.83;;
14080;SDS011;7116;52.152;5.392;2023-05-09T01:16:24;37.72;;;19.63;;
14080;SDS011;7116;52.152;5.392;2023-05-09T01:18:54;40.60;;;20.65;;
14080;SDS011;7116;52.152;5.392;2023-05-09T01:21:25;36.67;;;20.83;;
14080;SDS011;7116;52.152;5.392;2023-05-09T01:23:58;36.27;;;20.23;;
14080;SDS011;7116;52.152;5.392;2023-05-09T01:26:35;38.33;;;20.30;;
14080;SDS011;7116;52.152;5.392;2023-05-09T01:31:54;34.28;;;19.60;;
14080;SDS011;7116;52.152;5.392;2023-05-09T01:34:20;38.55;;;21.42;;
14080;SDS011;7116;52.152;5.392;2023-05-09T01:36:49;35.13;;;19.40;;
14080;SDS011;7116;52.152;5.392;2023-05-09T01:39:19;36.63;;;19.65;;
14080;SDS011;7116;52.152;5.392;2023-05-09T01:41:46;40.20;;;20.67;;
14080;SDS011;7116;52.152;5.392;2023-05-09T01:44:16;41.47;;;22.08;;
14080;SDS011;7116;52.152;5.392;2023-05-09T01:46:41;43.17;;;22.15;;
14080;SDS011;7116;52.152;5.392;2023-05-09T01:49:07;44.33;;;21.80;;
14080;SDS011;7116;52.152;5.392;2023-05-09T01:51:41;36.95;;;19.60;;
14080;SDS011;7116;52.152;5.392;2023-05-09T01:54:07;40.05;;;21.17;;
14080;SDS011;7116;52.152;5.392;2023-05-09T01:56:36;37.80;;;20.30;;
14080;SDS011;7116;52.152;5.392;2023-05-09T01:59:07;41.50;;;22.08;;
14080;SDS011;7116;52.152;5.392;2023-05-09T02:01:32;41.25;;;20.88;;
14080;SDS011;7116;52.152;5.392;2023-05-09T02:03:58;39.78;;;22.08;;
14080;SDS011;7116;52.152;5.392;2023-05-09T02:06:24;40.33;;;21.30;;
14080;SDS011;7116;52.152;5.392;2023-05-09T02:09:00;40.35;;;21.25;;
14080;SDS011;7116;52.152;5.392;2023-05-09T02:11:27;40.20;;;22.60;;
14080;SDS011;7116;52.152;5.392;2023-05-09T02:13:53;41.57;;;21.77;;
14080;SDS011;7116;52.152;5.392;2023-05-09T02:16:36;38.10;;;20.87;;
14080;SDS011;7116;52.152;5.392;2023-05-09T02:19:13;39.05;;;21.08;;
14080;SDS011;7116;52.152;5.392;2023-05-09T02:21:40;40.28;;;22.65;;
14080;SDS011;7116;52.152;5.392;2023-05-09T02:24:24;42.03;;;21.97;;
14080;SDS011;7116;52.152;5.392;2023-05-09T02:27:10;40.78;;;21.23;;
14080;SDS011;7116;52.152;5.392;2023-05-09T02:29:39;38.25;;;20.35;;
14080;SDS011;7116;52.152;5.392;2023-05-09T02:32:13;38.60;;;21.30;;
14080;SDS011;7116;52.152;5.392;2023-05-09T02:34:39;42.42;;;21.30;;
14080;SDS011;7116;52.152;5.392;2023-05-09T02:37:13;39.50;;;21.43;;
14080;SDS011;7116;52.152;5.392;2023-05-09T02:39:39;39.75;;;20.88;;
14080;SDS011;7116;52.152;5.392;2023-05-09T02:42:07;37.83;;;20.63;;
14080;SDS011;7116;52.152;5.392;2023-05-09T02:44:32;39.28;;;21.10;;
14080;SDS011;7116;52.152;5.392;2023-05-09T02:47:00;40.05;;;21.35;;
14080;SDS011;7116;52.152;5.392;2023-05-09T02:49:28;45.40;;;22.20;;
14080;SDS011;7116;52.152;5.392;2023-05-09T02:51:53;43.60;;;21.37;;
14080;SDS011;7116;52.152;5.392;2023-05-09T02:54:18;41.37;;;22.50;;
14080;SDS011;7116;52.152;5.392;2023-05-09T02:56:44;44.63;;;22.43;;
14080;SDS011;7116;52.152;5.392;2023-05-09T02:59:11;39.95;;;22.17;;
14080;SDS011;7116;52.152;5.392;2023-05-09T03:02:04;38.83;;;20.45;;
14080;SDS011;7116;52.152;5.392;2023-05-09T03:04:32;42.23;;;21.93;;
14080;SDS011;7116;52.152;5.392;2023-05-09T03:07:29;41.75;;;21.75;;
14080;SDS011;7116;52.152;5.392;2023-05-09T03:10:05;39.20;;;20.83;;
14080;SDS011;7116;52.152;5.392;2023-05-09T03:12:37;41.45;;;20.77;;
14080;SDS011;7116;52.152;5.392;2023-05-09T03:15:15;38.42;;;19.50;;
14080;SDS011;7116;52.152;5.392;2023-05-09T03:17:40;38.03;;;20.73;;
14080;SDS011;7116;52.152;5.392;2023-05-09T03:20:25;37.72;;;20.20;;
14080;SDS011;7116;52.152;5.392;2023-05-09T03:23:19;40.63;;;20.90;;
14080;SDS011;7116;52.152;5.392;2023-05-09T03:25:52;40.35;;;21.15;;
14080;SDS011;7116;52.152;5.392;2023-05-09T03:28:35;39.00;;;21.10;;
14080;SDS011;7116;52.152;5.392;2023-05-09T03:31:06;40.23;;;21.83;;
14080;SDS011;7116;52.152;5.392;2023-05-09T03:33:36;41.20;;;21.98;;
14080;SDS011;7116;52.152;5.392;2023-05-09T03:36:04;38.83;;;21.95;;
14080;SDS011;7116;52.152;5.392;2023-05-09T03:38:52;42.85;;;22.05;;
14080;SDS011;7116;52.152;5.392;2023-05-09T03:44:41;41.37;;;19.83;;
14080;SDS011;7116;52.152;5.392;2023-05-09T03:47:06;42.03;;;21.17;;
14080;SDS011;7116;52.152;5.392;2023-05-09T03:49:31;46.07;;;22.27;;
14080;SDS011;7116;52.152;5.392;2023-05-09T03:51:59;40.70;;;20.87;;
14080;SDS011;7116;52.152;5.392;2023-05-09T03:54:24;39.83;;;20.40;;
14080;SDS011;7116;52.152;5.392;2023-05-09T03:56:57;38.17;;;20.43;;
14080;SDS011;7116;52.152;5.392;2023-05-09T03:59:24;35.50;;;20.15;;
14080;SDS011;7116;52.152;5.392;2023-05-09T04:01:50;38.97;;;20.70;;
14080;SDS011;7116;52.152;5.392;2023-05-09T04:04:35;40.63;;;21.48;;
14080;SDS011;7116;52.152;5.392;2023-05-09T04:07:28;37.35;;;20.50;;
14080;SDS011;7116;52.152;5.392;2023-05-09T04:10:13;36.60;;;19.92;;
14080;SDS011;7116;52.152;5.392;2023-05-09T04:12:56;39.27;;;20.67;;
14080;SDS011;7116;52.152;5.392;2023-05-09T04:15:40;36.08;;;19.95;;
14080;SDS011;7116;52.152;5.392;2023-05-09T04:18:26;40.10;;;19.67;;
14080;SDS011;7116;52.152;5.392;2023-05-09T04:20:57;30.60;;;18.65;;
14080;SDS011;7116;52.152;5.392;2023-05-09T04:23:26;34.05;;;18.35;;
14080;SDS011;7116;52.152;5.392;2023-05-09T04:26:00;33.27;;;18.70;;
14080;SDS011;7116;52.152;5.392;2023-05-09T04:28:30;30.08;;;18.15;;
14080;SDS011;7116;52.152;5.392;2023-05-09T04:31:04;33.42;;;19.13;;
14080;SDS011;7116;52.152;5.392;2023-05-09T04:36:38;32.60;;;17.92;;
14080;SDS011;7116;52.152;5.392;2023-05-09T04:39:12;29.10;;;16.47;;
14080;SDS011;7116;52.152;5.392;2023-05-09T04:41:50;33.00;;;17.73;;
14080;SDS011;7116;52.152;5.392;2023-05-09T04:44:25;32.10;;;18.70;;
14080;SDS011;7116;52.152;5.392;2023-05-09T04:46:51;32.07;;;17.07;;
14080;SDS011;7116;52.152;5.392;2023-05-09T04:49:16;33.03;;;18.83;;
14080;SDS011;7116;52.152;5.392;2023-05-09T04:51:41;31.40;;;17.77;;
14080;SDS011;7116;52.152;5.392;2023-05-09T04:54:07;33.40;;;17.33;;
14080;SDS011;7116;52.152;5.392;2023-05-09T04:56:32;31.60;;;17.13;;
14080;SDS011;7116;52.152;5.392;2023-05-09T04:59:07;28.23;;;15.30;;
14080;SDS011;7116;52.152;5.392;2023-05-09T05:01:45;31.80;;;16.83;;
14080;SDS011;7116;52.152;5.392;2023-05-09T05:04:19;28.02;;;16.60;;
14080;SDS011;7116;52.152;5.392;2023-05-09T05:07:11;29.73;;;16.08;;
14080;SDS011;7116;52.152;5.392;2023-05-09T05:09:41;29.47;;;16.17;;
14080;SDS011;7116;52.152;5.392;2023-05-09T05:12:34;24.70;;;14.77;;
14080;SDS011;7116;52.152;5.392;2023-05-09T05:21:25;23.60;;;14.35;;
14080;SDS011;7116;52.152;5.392;2023-05-09T05:27:23;24.77;;;15.10;;
14080;SDS011;7116;52.152;5.392;2023-05-09T05:29:50;27.05;;;14.68;;
14080;SDS011;7116;52.152;5.392;2023-05-09T05:32:20;28.35;;;13.43;;
14080;SDS011;7116;52.152;5.392;2023-05-09T05:35:06;24.65;;;13.30;;
14080;SDS011;7116;52.152;5.392;2023-05-09T05:37:36;22.30;;;12.47;;
14080;SDS011;7116;52.152;5.392;2023-05-09T05:40:05;23.95;;;12.55;;
14080;SDS011;7116;52.152;5.392;2023-05-09T05:42:30;23.58;;;13.02;;
14080;SDS011;7116;52.152;5.392;2023-05-09T05:44:59;26.05;;;13.82;;
14080;SDS011;7116;52.152;5.392;2023-05-09T05:47:37;24.23;;;13.90;;
14080;SDS011;7116;52.152;5.392;2023-05-09T05:50:05;24.63;;;12.27;;
14080;SDS011;7116;52.152;5.392;2023-05-09T06:04:31;23.40;;;12.83;;
14080;SDS011;7116;52.152;5.392;2023-05-09T06:06:58;17.92;;;10.70;;
14080;SDS011;7116;52.152;5.392;2023-05-09T06:09:44;19.48;;;12.13;;
14080;SDS011;7116;52.152;5.392;2023-05-09T06:12:11;18.88;;;11.70;;
14080;SDS011;7116;52.152;5.392;2023-05-09T06:14:54;22.05;;;11.65;;
14080;SDS011;7116;52.152;5.392;2023-05-09T06:20:20;18.23;;;10.43;;
14080;SDS011;7116;52.152;5.392;2023-05-09T06:26:12;17.40;;;10.85;;
14080;SDS011;7116;52.152;5.392;2023-05-09T06:28:56;18.38;;;11.38;;
14080;SDS011;7116;52.152;5.392;2023-05-09T06:31:34;18.37;;;11.50;;
14080;SDS011;7116;52.152;5.392;2023-05-09T06:34:09;17.95;;;11.75;;
14080;SDS011;7116;52.152;5.392;2023-05-09T06:49:20;15.43;;;10.43;;
14080;SDS011;7116;52.152;5.392;2023-05-09T06:58:17;19.08;;;12.05;;
14080;SDS011;7116;52.152;5.392;2023-05-09T07:00:45;18.80;;;11.50;;
14080;SDS011;7116;52.152;5.392;2023-05-09T07:06:19;20.08;;;11.80;;
14080;SDS011;7116;52.152;5.392;2023-05-09T07:09:11;19.05;;;11.02;;
14080;SDS011;7116;52.152;5.392;2023-05-09T07:14:37;18.13;;;11.00;;
14080;SDS011;7116;52.152;5.392;2023-05-09T07:17:03;19.33;;;11.80;;
14080;SDS011;7116;52.152;5.392;2023-05-09T07:25:54;17.92;;;11.73;;
14080;SDS011;7116;52.152;5.392;2023-05-09T07:28:57;17.37;;;10.93;;
14080;SDS011;7116;52.152;5.392;2023-05-09T07:31:30;22.02;;;12.27;;
14080;SDS011;7116;52.152;5.392;2023-05-09T07:34:16;16.98;;;12.13;;
14080;SDS011;7116;52.152;5.392;2023-05-09T07:39:57;15.40;;;10.00;;
14080;SDS011;7116;52.152;5.392;2023-05-09T07:45:21;16.77;;;10.85;;
14080;SDS011;7116;52.152;5.392;2023-05-09T08:03:22;15.50;;;10.90;;
14080;SDS011;7116;52.152;5.392;2023-05-09T08:06:07;19.30;;;11.57;;
14080;SDS011;7116;52.152;5.392;2023-05-09T08:09:00;19.20;;;10.25;;
14080;SDS011;7116;52.152;5.392;2023-05-09T08:12:07;13.97;;;9.40;;
14080;SDS011;7116;52.152;5.392;2023-05-09T08:18:00;16.23;;;10.23;;
14080;SDS011;7116;52.152;5.392;2023-05-09T08:20:45;14.68;;;9.35;;
14080;SDS011;7116;52.152;5.392;2023-05-09T08:26:39;15.40;;;9.00;;
14080;SDS011;7116;52.152;5.392;2023-05-09T08:38:43;14.48;;;9.48;;
14080;SDS011;7116;52.152;5.392;2023-05-09T08:41:32;14.13;;;8.33;;
14080;SDS011;7116;52.152;5.392;2023-05-09T08:44:07;12.55;;;9.15;;
14080;SDS011;7116;52.152;5.392;2023-05-09T08:46:38;15.52;;;8.27;;
14080;SDS011;7116;52.152;5.392;2023-05-09T08:58:43;11.13;;;7.07;;
14080;SDS011;7116;52.152;5.392;2023-05-09T09:01:14;12.23;;;6.97;;
14080;SDS011;7116;52.152;5.392;2023-05-09T09:13:28;10.32;;;5.75;;
14080;SDS011;7116;52.152;5.392;2023-05-09T09:16:17;7.97;;;5.78;;
14080;SDS011;7116;52.152;5.392;2023-05-09T09:18:46;8.63;;;6.38;;
14080;SDS011;7116;52.152;5.392;2023-05-09T09:21:39;9.45;;;6.60;;
14080;SDS011;7116;52.152;5.392;2023-05-09T09:24:21;9.03;;;6.07;;
14080;SDS011;7116;52.152;5.392;2023-05-09T09:36:09;10.02;;;6.43;;
14080;SDS011;7116;52.152;5.392;2023-05-09T09:44:44;8.05;;;6.32;;
14080;SDS011;7116;52.152;5.392;2023-05-09T09:53:29;6.87;;;5.67;;
14080;SDS011;7116;52.152;5.392;2023-05-09T09:56:13;8.30;;;6.40;;
14080;SDS011;7116;52.152;5.392;2023-05-09T09:58:45;8.30;;;6.00;;
14080;SDS011;7116;52.152;5.392;2023-05-09T10:01:21;7.10;;;5.00;;
14080;SDS011;7116;52.152;5.392;2023-05-09T10:03:56;9.57;;;5.95;;
14080;SDS011;7116;52.152;5.392;2023-05-09T10:09:47;7.68;;;5.88;;
14080;SDS011;7116;52.152;5.392;2023-05-09T10:18:44;7.15;;;5.72;;
14080;SDS011;7116;52.152;5.392;2023-05-09T10:21:31;7.30;;;5.33;;
14080;SDS011;7116;52.152;5.392;2023-05-09T10:24:21;7.93;;;5.45;;
14080;SDS011;7116;52.152;5.392;2023-05-09T10:27:01;8.05;;;5.03;;
14080;SDS011;7116;52.152;5.392;2023-05-09T10:30:08;7.45;;;5.28;;
14080;SDS011;7116;52.152;5.392;2023-05-09T10:33:03;8.30;;;6.45;;
14080;SDS011;7116;52.152;5.392;2023-05-09T10:38:56;10.07;;;6.15;;
14080;SDS011;7116;52.152;5.392;2023-05-09T10:41:31;8.30;;;5.57;;
14080;SDS011;7116;52.152;5.392;2023-05-09T10:44:13;6.80;;;4.88;;
14080;SDS011;7116;52.152;5.392;2023-05-09T10:50:02;7.00;;;5.57;;
14080;SDS011;7116;52.152;5.392;2023-05-09T11:02:18;8.70;;;5.10;;
14080;SDS011;7116;52.152;5.392;2023-05-09T11:07:40;7.38;;;4.43;;
14080;SDS011;7116;52.152;5.392;2023-05-09T11:10:07;9.00;;;5.65;;
14080;SDS011;7116;52.152;5.392;2023-05-09T11:12:33;7.38;;;5.28;;
14080;SDS011;7116;52.152;5.392;2023-05-09T11:15:05;7.23;;;5.47;;
14080;SDS011;7116;52.152;5.392;2023-05-09T11:17:31;7.85;;;6.00;;
14080;SDS011;7116;52.152;5.392;2023-05-09T11:19:57;6.50;;;5.50;;
14080;SDS011;7116;52.152;5.392;2023-05-09T11:22:37;8.05;;;5.50;;
14080;SDS011;7116;52.152;5.392;2023-05-09T11:25:03;8.37;;;6.13;;
14080;SDS011;7116;52.152;5.392;2023-05-09T11:27:36;7.63;;;5.65;;
14080;SDS011;7116;52.152;5.392;2023-05-09T11:30:04;8.15;;;6.00;;
14080;SDS011;7116;52.152;5.392;2023-05-09T11:32:40;7.88;;;5.60;;
14080;SDS011;7116;52.152;5.392;2023-05-09T11:35:09;6.35;;;5.03;;
14080;SDS011;7116;52.152;5.392;2023-05-09T11:37:43;7.43;;;5.80;;
14080;SDS011;7116;52.152;5.392;2023-05-09T11:40:10;6.80;;;5.30;;
14080;SDS011;7116;52.152;5.392;2023-05-09T11:42:39;6.45;;;5.20;;
14080;SDS011;7116;52.152;5.392;2023-05-09T11:45:05;6.55;;;5.00;;
14080;SDS011;7116;52.152;5.392;2023-05-09T11:47:39;8.10;;;5.35;;
14080;SDS011;7116;52.152;5.392;2023-05-09T11:50:14;8.73;;;5.67;;
14080;SDS011;7116;52.152;5.392;2023-05-09T12:05:09;7.03;;;4.83;;
14080;SDS011;7116;52.152;5.392;2023-05-09T12:07:52;7.18;;;4.78;;
14080;SDS011;7116;52.152;5.392;2023-05-09T12:10:39;8.68;;;5.40;;
14080;SDS011;7116;52.152;5.392;2023-05-09T12:19:17;5.80;;;4.23;;
14080;SDS011;7116;52.152;5.392;2023-05-09T12:28:24;6.13;;;4.72;;
14080;SDS011;7116;52.152;5.392;2023-05-09T12:31:13;5.45;;;3.67;;
14080;SDS011;7116;52.152;5.392;2023-05-09T12:33:57;9.67;;;4.47;;
14080;SDS011;7116;52.152;5.392;2023-05-09T12:39:59;11.15;;;3.97;;
14080;SDS011;7116;52.152;5.392;2023-05-09T12:42:52;7.43;;;4.53;;
14080;SDS011;7116;52.152;5.392;2023-05-09T12:51:46;6.35;;;4.13;;
14080;SDS011;7116;52.152;5.392;2023-05-09T12:54:41;7.40;;;4.53;;
14080;SDS011;7116;52.152;5.392;2023-05-09T12:57:48;5.95;;;4.40;;
14080;SDS011;7116;52.152;5.392;2023-05-09T13:00:19;5.50;;;4.63;;
14080;SDS011;7116;52.152;5.392;2023-05-09T13:03:21;5.30;;;4.50;;
14080;SDS011;7116;52.152;5.392;2023-05-09T13:06:11;5.97;;;5.20;;
14080;SDS011;7116;52.152;5.392;2023-05-09T13:17:54;7.07;;;4.57;;
14080;SDS011;7116;52.152;5.392;2023-05-09T13:20:24;5.20;;;4.70;;
14080;SDS011;7116;52.152;5.392;2023-05-09T13:28:55;6.80;;;4.53;;
14080;SDS011;7116;52.152;5.392;2023-05-09T13:31:42;6.93;;;4.37;;
14080;SDS011;7116;52.152;5.392;2023-05-09T13:37:25;5.05;;;4.13;;
14080;SDS011;7116;52.152;5.392;2023-05-09T13:40:01;6.28;;;4.00;;
14080;SDS011;7116;52.152;5.392;2023-05-09T13:42:29;4.70;;;4.13;;
14080;SDS011;7116;52.152;5.392;2023-05-09T13:48:13;5.93;;;4.55;;
14080;SDS011;7116;52.152;5.392;2023-05-09T13:50:58;5.65;;;3.63;;
14080;SDS011;7116;52.152;5.392;2023-05-09T13:56:40;6.55;;;4.00;;
14080;SDS011;7116;52.152;5.392;2023-05-09T13:59:26;4.57;;;3.83;;
14080;SDS011;7116;52.152;5.392;2023-05-09T14:02:14;4.95;;;3.97;;
14080;SDS011;7116;52.152;5.392;2023-05-09T14:04:42;7.03;;;4.43;;
14080;SDS011;7116;52.152;5.392;2023-05-09T14:07:21;4.32;;;3.60;;
14080;SDS011;7116;52.152;5.392;2023-05-09T14:10:15;4.82;;;3.80;;
14080;SDS011;7116;52.152;5.392;2023-05-09T14:13:02;5.00;;;3.90;;
14080;SDS011;7116;52.152;5.392;2023-05-09T14:15:46;4.20;;;3.38;;
14080;SDS011;7116;52.152;5.392;2023-05-09T14:18:11;5.37;;;3.33;;
14080;SDS011;7116;52.152;5.392;2023-05-09T14:20:37;4.20;;;3.67;;
14080;SDS011;7116;52.152;5.392;2023-05-09T14:23:04;4.38;;;3.78;;
14080;SDS011;7116;52.152;5.392;2023-05-09T14:25:34;6.43;;;3.95;;
14080;SDS011;7116;52.152;5.392;2023-05-09T14:33:54;5.78;;;4.47;;
14080;SDS011;7116;52.152;5.392;2023-05-09T14:36:19;5.85;;;4.35;;
14080;SDS011;7116;52.152;5.392;2023-05-09T14:42:27;5.82;;;3.80;;
14080;SDS011;7116;52.152;5.392;2023-05-09T14:45:03;5.20;;;3.70;;
14080;SDS011;7116;52.152;5.392;2023-05-09T14:47:56;4.25;;;3.45;;
14080;SDS011;7116;52.152;5.392;2023-05-09T14:50:44;5.05;;;3.85;;
14080;SDS011;7116;52.152;5.392;2023-05-09T14:53:22;3.70;;;3.23;;
14080;SDS011;7116;52.152;5.392;2023-05-09T14:55:48;3.85;;;3.35;;
14080;SDS011;7116;52.152;5.392;2023-05-09T14:58:13;3.90;;;3.20;;
14080;SDS011;7116;52.152;5.392;2023-05-09T15:00:42;4.00;;;3.40;;
14080;SDS011;7116;52.152;5.392;2023-05-09T15:03:07;3.93;;;3.50;;
14080;SDS011;7116;52.152;5.392;2023-05-09T15:05:33;4.80;;;4.00;;
14080;SDS011;7116;52.152;5.392;2023-05-09T15:08:01;3.63;;;3.13;;
14080;SDS011;7116;52.152;5.392;2023-05-09T15:10:26;3.65;;;3.17;;
14080;SDS011;7116;52.152;5.392;2023-05-09T15:16:25;4.20;;;3.05;;
14080;SDS011;7116;52.152;5.392;2023-05-09T15:22:23;4.20;;;3.03;;
14080;SDS011;7116;52.152;5.392;2023-05-09T15:25:02;3.88;;;2.88;;
14080;SDS011;7116;52.152;5.392;2023-05-09T15:30:33;4.47;;;3.53;;
14080;SDS011;7116;52.152;5.392;2023-05-09T15:38:44;4.00;;;3.50;;
14080;SDS011;7116;52.152;5.392;2023-05-09T15:41:13;4.32;;;3.55;;
14080;SDS011;7116;52.152;5.392;2023-05-09T15:43:46;3.90;;;3.50;;
14080;SDS011;7116;52.152;5.392;2023-05-09T15:46:17;5.68;;;3.55;;
14080;SDS011;7116;52.152;5.392;2023-05-09T15:51:49;4.55;;;3.72;;
14080;SDS011;7116;52.152;5.392;2023-05-09T15:54:16;4.03;;;3.50;;
14080;SDS011;7116;52.152;5.392;2023-05-09T15:56:49;6.43;;;3.53;;
14080;SDS011;7116;52.152;5.392;2023-05-09T16:02:18;4.90;;;3.20;;
14080;SDS011;7116;52.152;5.392;2023-05-09T16:04:53;4.57;;;3.67;;
14080;SDS011;7116;52.152;5.392;2023-05-09T16:07:36;9.97;;;3.37;;
14080;SDS011;7116;52.152;5.392;2023-05-09T16:10:39;3.60;;;3.20;;
14080;SDS011;7116;52.152;5.392;2023-05-09T16:13:42;3.40;;;3.00;;
14080;SDS011;7116;52.152;5.392;2023-05-09T16:16:17;3.30;;;2.53;;
14080;SDS011;7116;52.152;5.392;2023-05-09T16:25:07;2.50;;;2.25;;
14080;SDS011;7116;52.152;5.392;2023-05-09T16:27:55;3.00;;;2.33;;
14080;SDS011;7116;52.152;5.392;2023-05-09T16:30:30;3.03;;;2.42;;
14080;SDS011;7116;52.152;5.392;2023-05-09T16:33:10;3.00;;;2.35;;
14080;SDS011;7116;52.152;5.392;2023-05-09T16:38:49;3.28;;;2.80;;
14080;SDS011;7116;52.152;5.392;2023-05-09T16:41:36;6.40;;;3.00;;
14080;SDS011;7116;52.152;5.392;2023-05-09T16:44:09;3.67;;;3.13;;
14080;SDS011;7116;52.152;5.392;2023-05-09T16:46:45;5.28;;;2.53;;
14080;SDS011;7116;52.152;5.392;2023-05-09T16:49:18;5.25;;;2.58;;
14080;SDS011;7116;52.152;5.392;2023-05-09T16:52:09;3.03;;;2.47;;
14080;SDS011;7116;52.152;5.392;2023-05-09T16:55:12;3.60;;;2.38;;
14080;SDS011;7116;52.152;5.392;2023-05-09T16:58:05;3.83;;;3.05;;
14080;SDS011;7116;52.152;5.392;2023-05-09T17:00:35;3.70;;;3.22;;
14080;SDS011;7116;52.152;5.392;2023-05-09T17:06:25;3.83;;;2.87;;
14080;SDS011;7116;52.152;5.392;2023-05-09T17:11:59;4.32;;;3.38;;
14080;SDS011;7116;52.152;5.392;2023-05-09T17:17:57;3.70;;;3.15;;
14080;SDS011;7116;52.152;5.392;2023-05-09T17:20:50;3.73;;;3.43;;
14080;SDS011;7116;52.152;5.392;2023-05-09T17:26:21;3.80;;;3.40;;
14080;SDS011;7116;52.152;5.392;2023-05-09T17:35:29;3.80;;;3.17;;
14080;SDS011;7116;52.152;5.392;2023-05-09T17:41:12;4.43;;;3.90;;
14080;SDS011;7116;52.152;5.392;2023-05-09T17:47:08;5.78;;;3.85;;
14080;SDS011;7116;52.152;5.392;2023-05-09T17:53:10;4.32;;;3.83;;
14080;SDS011;7116;52.152;5.392;2023-05-09T17:59:11;4.75;;;4.18;;
14080;SDS011;7116;52.152;5.392;2023-05-09T18:02:03;4.80;;;3.97;;
14080;SDS011;7116;52.152;5.392;2023-05-09T18:04:33;4.63;;;4.13;;
14080;SDS011;7116;52.152;5.392;2023-05-09T18:16:13;6.75;;;3.72;;
14080;SDS011;7116;52.152;5.392;2023-05-09T18:18:57;6.47;;;4.40;;
14080;SDS011;7116;52.152;5.392;2023-05-09T18:25:08;5.70;;;4.60;;
14080;SDS011;7116;52.152;5.392;2023-05-09T18:30:51;5.75;;;4.18;;
14080;SDS011;7116;52.152;5.392;2023-05-09T18:33:53;3.77;;;3.40;;
14080;SDS011;7116;52.152;5.392;2023-05-09T18:36:21;4.95;;;4.13;;
14080;SDS011;7116;52.152;5.392;2023-05-09T18:42:09;4.40;;;3.83;;
14080;SDS011;7116;52.152;5.392;2023-05-09T18:44:58;5.45;;;4.40;;
14080;SDS011;7116;52.152;5.392;2023-05-09T18:47:45;6.60;;;4.57;;
14080;SDS011;7116;52.152;5.392;2023-05-09T18:50:20;5.18;;;4.10;;
14080;SDS011;7116;52.152;5.392;2023-05-09T18:52:46;5.23;;;4.23;;
14080;SDS011;7116;52.152;5.392;2023-05-09T18:55:11;7.30;;;4.07;;
14080;SDS011;7116;52.152;5.392;2023-05-09T18:57:47;4.57;;;3.80;;
14080;SDS011;7116;52.152;5.392;2023-05-09T19:00:35;6.13;;;4.07;;
14080;SDS011;7116;52.152;5.392;2023-05-09T19:03:03;4.65;;;4.10;;
14080;SDS011;7116;52.152;5.392;2023-05-09T19:05:56;4.85;;;4.38;;
14080;SDS011;7116;52.152;5.392;2023-05-09T19:08:47;5.03;;;4.10;;
14080;SDS011;7116;52.152;5.392;2023-05-09T19:14:29;6.50;;;4.72;;
14080;SDS011;7116;52.152;5.392;2023-05-09T19:17:07;5.03;;;4.28;;
14080;SDS011;7116;52.152;5.392;2023-05-09T19:22:51;5.90;;;5.00;;
14080;SDS011;7116;52.152;5.392;2023-05-09T19:25:19;6.80;;;5.20;;
14080;SDS011;7116;52.152;5.392;2023-05-09T19:28:05;6.60;;;5.03;;
14080;SDS011;7116;52.152;5.392;2023-05-09T19:30:35;5.40;;;4.82;;
14080;SDS011;7116;52.152;5.392;2023-05-09T19:33:01;5.00;;;4.50;;
14080;SDS011;7116;52.152;5.392;2023-05-09T19:35:26;7.07;;;3.97;;
14080;SDS011;7116;52.152;5.392;2023-05-09T19:37:51;5.80;;;4.33;;
14080;SDS011;7116;52.152;5.392;2023-05-09T19:40:16;5.33;;;4.53;;
14080;SDS011;7116;52.152;5.392;2023-05-09T19:42:42;5.40;;;4.70;;
14080;SDS011;7116;52.152;5.392;2023-05-09T19:45:07;6.57;;;4.43;;
14080;SDS011;7116;52.152;5.392;2023-05-09T19:47:32;6.70;;;4.50;;
14080;SDS011;7116;52.152;5.392;2023-05-09T19:49:58;7.10;;;4.57;;
14080;SDS011;7116;52.152;5.392;2023-05-09T19:52:26;5.43;;;4.23;;
14080;SDS011;7116;52.152;5.392;2023-05-09T19:54:53;5.65;;;4.57;;
14080;SDS011;7116;52.152;5.392;2023-05-09T19:57:19;5.30;;;4.43;;
14080;SDS011;7116;52.152;5.392;2023-05-09T19:59:44;5.30;;;4.03;;
14080;SDS011;7116;52.152;5.392;2023-05-09T20:02:11;7.95;;;4.13;;
14080;SDS011;7116;52.152;5.392;2023-05-09T20:04:36;4.60;;;4.03;;
14080;SDS011;7116;52.152;5.392;2023-05-09T20:07:01;4.97;;;3.80;;
14080;SDS011;7116;52.152;5.392;2023-05-09T20:09:29;4.88;;;4.30;;
14080;SDS011;7116;52.152;5.392;2023-05-09T20:12:03;5.18;;;3.80;;
14080;SDS011;7116;52.152;5.392;2023-05-09T20:14:29;5.40;;;4.53;;
14080;SDS011;7116;52.152;5.392;2023-05-09T20:16:55;6.40;;;3.78;;
14080;SDS011;7116;52.152;5.392;2023-05-09T20:19:20;4.40;;;3.87;;
14080;SDS011;7116;52.152;5.392;2023-05-09T20:21:48;5.00;;;4.30;;
14080;SDS011;7116;52.152;5.392;2023-05-09T20:24:13;4.80;;;3.40;;
14080;SDS011;7116;52.152;5.392;2023-05-09T20:26:39;4.10;;;3.43;;
14080;SDS011;7116;52.152;5.392;2023-05-09T20:29:04;5.87;;;3.60;;
14080;SDS011;7116;52.152;5.392;2023-05-09T20:31:32;6.07;;;4.00;;
14080;SDS011;7116;52.152;5.392;2023-05-09T20:33:57;3.95;;;3.55;;
14080;SDS011;7116;52.152;5.392;2023-05-09T20:36:23;4.37;;;3.83;;
14080;SDS011;7116;52.152;5.392;2023-05-09T20:38:48;4.60;;;3.42;;
14080;SDS011;7116;52.152;5.392;2023-05-09T20:41:14;5.63;;;4.13;;
14080;SDS011;7116;52.152;5.392;2023-05-09T20:43:39;5.57;;;3.97;;
14080;SDS011;7116;52.152;5.392;2023-05-09T20:46:05;4.77;;;3.87;;
14080;SDS011;7116;52.152;5.392;2023-05-09T20:48:30;4.45;;;3.97;;
14080;SDS011;7116;52.152;5.392;2023-05-09T20:50:56;5.57;;;3.53;;
14080;SDS011;7116;52.152;5.392;2023-05-09T20:53:23;5.20;;;4.13;;
14080;SDS011;7116;52.152;5.392;2023-05-09T20:56:02;5.18;;;4.45;;
14080;SDS011;7116;52.152;5.392;2023-05-09T20:58:31;6.35;;;4.53;;
14080;SDS011;7116;52.152;5.392;2023-05-09T21:00:59;4.53;;;3.85;;
14080;SDS011;7116;52.152;5.392;2023-05-09T21:03:35;7.60;;;4.53;;
14080;SDS011;7116;52.152;5.392;2023-05-09T21:06:03;5.80;;;4.40;;
14080;SDS011;7116;52.152;5.392;2023-05-09T21:08:31;6.68;;;4.55;;
14080;SDS011;7116;52.152;5.392;2023-05-09T21:11:07;8.07;;;5.55;;